createdAt,value
2023-05-15T00:02:23.757Z,2.42
2023-05-15T00:04:52.419Z,3.03
2023-05-15T00:07:20.774Z,2.25
2023-05-15T00:09:50.214Z,2.50
2023-05-15T00:12:19.946Z,2.40
2023-05-15T00:14:48.029Z,2.75
2023-05-15T00:17:16.030Z,3.00
2023-05-15T00:19:44.429Z,3.05
2023-05-15T00:22:12.491Z,2.85
2023-05-15T00:24:40.570Z,3.12
2023-05-15T00:27:10.616Z,3.75
2023-05-15T00:29:38.790Z,2.35
2023-05-15T00:32:08.346Z,2.00
2023-05-15T00:34:36.881Z,2.30
2023-05-15T00:37:05.394Z,1.83
2023-05-15T00:39:33.467Z,2.53
2023-05-15T00:42:02.345Z,2.20
2023-05-15T00:44:33.407Z,3.00
2023-05-15T00:47:03.375Z,2.53
2023-05-15T00:49:35.493Z,2.55
2023-05-15T00:52:08.364Z,2.20
2023-05-15T00:54:36.505Z,2.53
2023-05-15T00:57:07.157Z,2.45
2023-05-15T00:59:41.066Z,2.70
2023-05-15T01:02:10.493Z,2.37
2023-05-15T01:04:40.529Z,3.10
2023-05-15T01:07:09.423Z,2.67
2023-05-15T01:09:39.451Z,2.53
2023-05-15T01:12:09.058Z,2.80
2023-05-15T01:14:38.871Z,3.22
2023-05-15T01:17:07.668Z,3.42
2023-05-15T01:19:36.638Z,3.60
2023-05-15T01:22:30.440Z,3.45
2023-05-15T01:25:21.712Z,3.47
2023-05-15T01:27:55.717Z,3.70
2023-05-15T01:30:30.159Z,3.50
2023-05-15T01:33:06.526Z,3.87
2023-05-15T01:35:39.715Z,3.75
2023-05-15T01:38:20.356Z,2.67
2023-05-15T01:40:49.997Z,3.37
2023-05-15T01:43:25.364Z,3.33
2023-05-15T01:45:54.510Z,3.15
2023-05-15T01:48:24.598Z,3.50
2023-05-15T01:50:55.333Z,3.55
2023-05-15T01:53:23.807Z,3.67
2023-05-15T01:55:54.740Z,3.10
2023-05-15T01:58:27.217Z,3.10
2023-05-15T02:00:57.890Z,2.95
2023-05-15T02:03:27.023Z,2.65
2023-05-15T02:05:56.644Z,3.10
2023-05-15T02:08:28.760Z,3.42
2023-05-15T02:10:58.721Z,3.87
2023-05-15T02:13:29.468Z,3.83
2023-05-15T02:15:58.165Z,4.35
2023-05-15T02:18:28.547Z,4.45
2023-05-15T02:21:00.992Z,3.58
2023-05-15T02:23:29.477Z,4.30
2023-05-15T02:26:09.772Z,3.67
2023-05-15T02:28:47.321Z,4.12
2023-05-15T02:31:24.676Z,3.60
2023-05-15T02:34:00.161Z,4.70
2023-05-15T02:36:33.503Z,5.22
2023-05-15T02:39:03.082Z,4.62
2023-05-15T02:41:33.778Z,5.00
2023-05-15T02:44:04.395Z,4.32
2023-05-15T02:46:33.230Z,4.00
2023-05-15T02:49:02.654Z,4.53
2023-05-15T02:51:31.222Z,4.60
2023-05-15T02:54:01.126Z,4.78
2023-05-15T02:56:29.524Z,4.82
2023-05-15T02:58:57.705Z,4.20
2023-05-15T03:01:27.149Z,4.18
2023-05-15T03:03:55.712Z,5.15
2023-05-15T03:06:23.816Z,4.70
2023-05-15T03:08:52.078Z,4.60
2023-05-15T03:11:21.464Z,4.30
2023-05-15T03:13:49.544Z,4.68
2023-05-15T03:16:17.563Z,5.05
2023-05-15T03:18:47.325Z,4.53
2023-05-15T03:21:15.555Z,4.90
2023-05-15T03:23:43.725Z,5.10
2023-05-15T03:26:12.052Z,4.62
2023-05-15T03:28:41.732Z,4.43
2023-05-15T03:31:10.573Z,4.40
2023-05-15T03:33:39.480Z,4.57
2023-05-15T03:36:09.322Z,4.65
2023-05-15T03:38:38.072Z,4.60
2023-05-15T03:41:06.562Z,5.12
2023-05-15T03:43:34.598Z,4.65
2023-05-15T03:46:04.649Z,4.37
2023-05-15T03:48:33.092Z,4.43
2023-05-15T03:51:01.353Z,4.60
2023-05-15T03:53:33.526Z,4.78
2023-05-15T03:56:01.880Z,4.10
2023-05-15T03:58:31.992Z,4.72
2023-05-15T04:01:00.127Z,4.85
2023-05-15T04:03:28.434Z,4.72
2023-05-15T04:05:56.448Z,5.25
2023-05-15T04:08:24.503Z,4.95
2023-05-15T04:10:54.626Z,5.30
2023-05-15T04:13:22.915Z,4.62
2023-05-15T04:15:51.025Z,4.70
2023-05-15T04:18:19.370Z,4.35
2023-05-15T04:20:47.372Z,4.80
2023-05-15T04:23:15.326Z,5.55
2023-05-15T04:25:46.577Z,4.53
2023-05-15T04:28:16.123Z,4.70
2023-05-15T04:30:44.376Z,4.72
2023-05-15T04:33:15.009Z,5.15
2023-05-15T04:35:43.241Z,5.97
2023-05-15T04:38:11.814Z,4.65
2023-05-15T04:40:39.885Z,4.55
2023-05-15T04:43:08.326Z,4.70
2023-05-15T04:45:39.085Z,5.10
2023-05-15T04:48:07.637Z,5.22
2023-05-15T04:50:36.882Z,5.10
2023-05-15T04:53:05.485Z,5.50
2023-05-15T04:55:33.805Z,4.65
2023-05-15T04:58:01.919Z,4.68
2023-05-15T05:00:31.106Z,5.10
2023-05-15T05:03:00.632Z,4.68
2023-05-15T05:05:28.947Z,4.80
2023-05-15T05:07:57.243Z,5.05
2023-05-15T05:10:25.282Z,5.18
2023-05-15T05:12:53.368Z,5.97
2023-05-15T05:15:21.729Z,5.57
2023-05-15T05:17:49.837Z,5.12
2023-05-15T05:20:21.535Z,5.45
2023-05-15T05:22:49.861Z,5.45
2023-05-15T05:25:18.423Z,5.22
2023-05-15T05:27:46.504Z,5.80
2023-05-15T05:30:15.184Z,5.30
2023-05-15T05:32:43.503Z,5.93
2023-05-15T05:35:11.609Z,5.50
2023-05-15T05:37:41.621Z,7.30
2023-05-15T05:40:10.826Z,5.78
2023-05-15T05:42:39.189Z,6.30
2023-05-15T05:45:08.611Z,5.47
2023-05-15T05:47:36.799Z,6.03
2023-05-15T05:50:05.851Z,4.87
2023-05-15T05:52:33.884Z,6.03
2023-05-15T05:55:03.596Z,6.12
2023-05-15T05:57:32.002Z,5.45
2023-05-15T06:00:00.128Z,5.10
2023-05-15T06:02:28.575Z,4.68
2023-05-15T06:04:57.502Z,5.07
2023-05-15T06:07:25.581Z,5.22
2023-05-15T06:09:53.559Z,4.85
2023-05-15T06:12:25.422Z,5.45
2023-05-15T06:14:53.424Z,5.50
2023-05-15T06:17:21.896Z,5.20
2023-05-15T06:19:49.942Z,5.10
2023-05-15T06:22:18.032Z,5.20
2023-05-15T06:24:46.476Z,4.78
2023-05-15T06:27:14.524Z,5.93
2023-05-15T06:29:43.977Z,5.07
2023-05-15T06:32:12.870Z,5.50
2023-05-15T06:34:40.855Z,4.82
2023-05-15T06:37:09.233Z,5.15
2023-05-15T06:39:37.645Z,5.62
2023-05-15T06:42:06.729Z,4.82
2023-05-15T06:44:36.544Z,5.15
2023-05-15T06:47:07.453Z,5.00
2023-05-15T06:49:35.589Z,4.53
2023-05-15T06:52:03.663Z,5.32
2023-05-15T06:54:31.888Z,4.37
2023-05-15T06:57:00.128Z,3.90
2023-05-15T06:59:28.474Z,4.22
2023-05-15T07:01:56.992Z,4.60
2023-05-15T07:04:26.386Z,4.45
2023-05-15T07:06:54.455Z,4.07
2023-05-15T07:09:22.745Z,4.47
2023-05-15T07:11:50.813Z,4.68
2023-05-15T07:14:19.932Z,3.75
2023-05-15T07:16:48.291Z,4.12
2023-05-15T07:19:18.891Z,3.60
2023-05-15T07:21:48.346Z,4.15
2023-05-15T07:24:16.694Z,4.07
2023-05-15T07:26:57.641Z,3.80
2023-05-15T07:29:27.077Z,4.20
2023-05-15T07:31:55.293Z,4.03
2023-05-15T07:34:23.594Z,3.97
2023-05-15T07:36:53.306Z,4.00
2023-05-15T07:39:21.335Z,3.90
2023-05-15T07:41:49.344Z,4.15
2023-05-15T07:44:17.623Z,3.90
2023-05-15T07:46:46.145Z,3.92
2023-05-15T07:49:14.268Z,3.95
2023-05-15T07:51:42.826Z,3.62
2023-05-15T07:54:12.488Z,3.72
2023-05-15T07:56:41.512Z,3.83
2023-05-15T07:59:09.891Z,4.37
2023-05-15T08:01:37.932Z,3.83
2023-05-15T08:04:08.970Z,3.75
2023-05-15T08:06:38.142Z,3.62
2023-05-15T08:09:06.544Z,4.18
2023-05-15T08:11:36.472Z,3.70
2023-05-15T08:14:04.481Z,4.32
2023-05-15T08:16:32.816Z,3.78
2023-05-15T08:19:04.686Z,4.03
2023-05-15T08:21:33.284Z,3.90
2023-05-15T08:24:01.864Z,3.65
2023-05-15T08:26:30.099Z,3.95
2023-05-15T08:28:59.691Z,4.12
2023-05-15T08:31:28.025Z,4.10
2023-05-15T08:33:57.161Z,3.78
2023-05-15T08:36:25.648Z,3.95
2023-05-15T08:38:53.741Z,3.62
2023-05-15T08:41:40.646Z,4.40
2023-05-15T08:44:11.865Z,3.65
2023-05-15T08:46:40.114Z,3.92
2023-05-15T08:49:14.163Z,4.00
2023-05-15T08:51:42.688Z,3.60
2023-05-15T08:54:11.647Z,4.10
2023-05-15T08:56:40.103Z,3.55
2023-05-15T08:59:08.648Z,3.22
2023-05-15T09:01:40.929Z,3.28
2023-05-15T09:04:09.536Z,3.40
2023-05-15T09:06:39.309Z,3.10
2023-05-15T09:09:07.864Z,3.12
2023-05-15T09:11:36.950Z,3.90
2023-05-15T09:14:04.986Z,3.90
2023-05-15T09:16:33.073Z,2.80
2023-05-15T09:19:04.121Z,2.97
2023-05-15T09:21:32.483Z,2.97
2023-05-15T09:24:17.044Z,3.42
2023-05-15T09:26:46.329Z,3.45
2023-05-15T09:29:18.738Z,3.30
2023-05-15T09:31:48.365Z,3.22
2023-05-15T09:34:18.033Z,3.22
2023-05-15T09:36:46.117Z,3.40
2023-05-15T09:39:14.631Z,3.20
2023-05-15T09:41:45.045Z,3.30
2023-05-15T09:44:23.230Z,3.22
2023-05-15T09:46:52.976Z,3.35
2023-05-15T09:49:22.577Z,3.00
2023-05-15T09:51:51.448Z,2.90
2023-05-15T09:54:20.318Z,2.67
2023-05-15T09:56:48.980Z,2.03
2023-05-15T09:59:21.684Z,2.45
2023-05-15T10:01:51.580Z,2.85
2023-05-15T10:04:21.612Z,2.42
2023-05-15T10:06:52.259Z,2.22
2023-05-15T10:09:20.605Z,2.33
2023-05-15T10:11:52.982Z,2.60
2023-05-15T10:14:24.420Z,3.17
2023-05-15T10:16:52.623Z,2.72
2023-05-15T10:19:23.667Z,2.65
2023-05-15T10:21:57.140Z,2.60
2023-05-15T10:24:29.847Z,2.97
2023-05-15T10:26:58.944Z,2.78
2023-05-15T10:29:29.978Z,2.97
2023-05-15T10:32:01.664Z,2.70
2023-05-15T10:34:30.172Z,2.70
2023-05-15T10:37:01.497Z,3.05
2023-05-15T10:39:31.073Z,2.62
2023-05-15T10:42:00.809Z,3.05
2023-05-15T10:44:29.263Z,2.95
2023-05-15T10:46:57.489Z,3.03
2023-05-15T10:49:26.236Z,2.92
2023-05-15T10:51:54.529Z,2.97
2023-05-15T10:54:24.337Z,2.65
2023-05-15T10:56:52.954Z,3.37
2023-05-15T10:59:21.212Z,3.20
2023-05-15T11:01:50.859Z,3.12
2023-05-15T11:04:20.277Z,3.22
2023-05-15T11:06:51.779Z,3.65
2023-05-15T11:09:41.304Z,3.45
2023-05-15T11:12:11.768Z,3.30
2023-05-15T11:14:43.354Z,2.95
2023-05-15T11:17:12.768Z,3.50
2023-05-15T11:20:01.426Z,3.40
2023-05-15T11:22:32.469Z,3.70
2023-05-15T11:25:03.452Z,3.20
2023-05-15T11:27:33.713Z,3.60
2023-05-15T11:30:13.418Z,3.42
2023-05-15T11:32:53.495Z,3.75
2023-05-15T11:35:24.303Z,3.28
2023-05-15T11:37:55.202Z,3.22
2023-05-15T11:40:27.209Z,3.30
2023-05-15T11:43:07.222Z,3.10
2023-05-15T11:45:38.865Z,2.70
2023-05-15T11:48:09.835Z,2.55
2023-05-15T11:50:42.745Z,2.62
2023-05-15T11:53:11.365Z,2.37
2023-05-15T11:55:42.418Z,2.20
2023-05-15T11:58:15.298Z,2.45
2023-05-15T12:00:44.940Z,2.05
2023-05-15T12:03:21.718Z,2.10
2023-05-15T12:05:59.206Z,2.47
2023-05-15T12:08:33.353Z,2.53
2023-05-15T12:11:03.749Z,2.33
2023-05-15T12:13:32.959Z,3.17
2023-05-15T12:16:03.379Z,2.47
2023-05-15T12:18:33.295Z,2.22
2023-05-15T12:21:01.472Z,2.17
2023-05-15T12:23:29.756Z,2.30
2023-05-15T12:26:02.368Z,2.40
2023-05-15T12:28:36.134Z,3.30
2023-05-15T12:31:06.303Z,2.50
2023-05-15T12:33:34.539Z,2.78
2023-05-15T12:36:04.960Z,2.58
2023-05-15T12:38:34.947Z,2.55
2023-05-15T12:41:04.507Z,3.40
2023-05-15T12:43:33.321Z,2.60
2023-05-15T12:46:02.298Z,2.58
2023-05-15T12:48:32.254Z,2.60
2023-05-15T12:51:07.251Z,3.05
2023-05-15T12:53:39.891Z,2.45
2023-05-15T12:56:21.950Z,2.30
2023-05-15T12:58:56.745Z,2.40
2023-05-15T13:01:24.857Z,1.98
2023-05-15T13:03:54.181Z,1.92
2023-05-15T13:06:24.056Z,1.75
2023-05-15T13:08:52.739Z,2.08
2023-05-15T13:11:31.454Z,1.70
2023-05-15T13:16:51.259Z,2.35
2023-05-15T13:19:19.602Z,2.50
2023-05-15T13:21:50.839Z,1.98
2023-05-15T13:24:19.402Z,1.90
2023-05-15T13:26:48.922Z,1.40
2023-05-15T13:29:17.005Z,1.37
2023-05-15T13:31:45.533Z,1.60
2023-05-15T13:34:13.946Z,1.40
2023-05-15T13:36:42.424Z,1.60
2023-05-15T13:39:10.902Z,1.37
2023-05-15T13:41:39.183Z,1.10
2023-05-15T13:44:09.001Z,1.40
2023-05-15T13:46:37.691Z,1.37
2023-05-15T13:49:07.021Z,1.30
2023-05-15T13:51:35.707Z,1.55
2023-05-15T13:54:04.498Z,1.70
2023-05-15T13:56:32.664Z,1.40
2023-05-15T13:59:00.832Z,1.60
2023-05-15T14:01:30.713Z,1.62
2023-05-15T14:03:59.764Z,1.75
2023-05-15T14:06:28.458Z,1.60
2023-05-15T14:08:56.538Z,1.85
2023-05-15T14:11:25.158Z,1.85
2023-05-15T14:13:53.365Z,2.00
2023-05-15T14:16:21.589Z,1.87
2023-05-15T14:18:51.534Z,1.83
2023-05-15T14:21:19.793Z,2.00
2023-05-15T14:23:47.956Z,2.35
2023-05-15T14:26:16.399Z,2.10
2023-05-15T14:28:44.560Z,2.30
2023-05-15T14:31:12.926Z,1.90
2023-05-15T14:33:41.933Z,2.03
2023-05-15T14:36:11.452Z,1.90
2023-05-15T14:38:39.945Z,2.20
2023-05-15T14:44:07.375Z,2.80
2023-05-15T14:46:36.479Z,3.00
2023-05-15T14:49:05.121Z,2.47
2023-05-15T14:51:34.769Z,2.22
2023-05-15T14:54:05.011Z,2.35
2023-05-15T14:56:33.474Z,2.70
2023-05-15T14:59:01.879Z,2.53
2023-05-15T15:01:30.517Z,3.00
2023-05-15T15:03:58.896Z,1.70
2023-05-15T15:06:27.132Z,2.47
2023-05-15T15:08:56.930Z,2.42
2023-05-15T15:11:24.933Z,2.37
2023-05-15T15:13:53.037Z,2.53
2023-05-15T15:16:21.738Z,2.60
2023-05-15T15:18:49.906Z,2.70
2023-05-15T15:21:17.989Z,3.00
2023-05-15T15:23:48.273Z,2.55
2023-05-15T15:26:18.108Z,2.70
2023-05-15T15:28:46.479Z,2.62
2023-05-15T15:31:15.569Z,2.50
2023-05-15T15:33:46.461Z,3.03
2023-05-15T15:36:14.820Z,2.90
2023-05-15T15:38:43.823Z,2.55
2023-05-15T15:41:12.267Z,2.58
2023-05-15T15:43:42.041Z,2.25
2023-05-15T15:46:11.828Z,1.98
2023-05-15T15:48:48.735Z,2.37
2023-05-15T15:51:17.416Z,2.58
2023-05-15T15:53:45.694Z,2.05
2023-05-15T15:56:13.657Z,1.98
2023-05-15T15:58:43.033Z,2.10
2023-05-15T16:01:11.390Z,2.08
2023-05-15T16:03:39.849Z,2.37
2023-05-15T16:06:07.978Z,2.05
2023-05-15T16:08:36.263Z,2.47
2023-05-15T16:11:04.666Z,2.40
2023-05-15T16:13:33.041Z,1.83
2023-05-15T16:16:03.673Z,2.30
2023-05-15T16:18:32.005Z,2.15
2023-05-15T16:21:00.049Z,1.87
2023-05-15T16:23:30.308Z,1.87
2023-05-15T16:25:58.547Z,2.40
2023-05-15T16:28:26.581Z,2.40
2023-05-15T16:30:55.127Z,2.22
2023-05-15T16:33:25.065Z,2.15
2023-05-15T16:35:53.128Z,2.17
2023-05-15T16:38:21.207Z,2.22
2023-05-15T16:40:50.278Z,2.10
2023-05-15T16:43:18.349Z,2.00
2023-05-15T16:45:46.415Z,2.33
2023-05-15T16:48:14.822Z,2.37
2023-05-15T16:50:44.319Z,2.25
2023-05-15T16:53:12.507Z,2.47
2023-05-15T16:55:41.357Z,2.37
2023-05-15T16:58:09.607Z,2.30
2023-05-15T17:00:38.187Z,2.33
2023-05-15T17:03:07.244Z,1.90
2023-05-15T17:05:35.603Z,1.92
2023-05-15T17:08:05.634Z,1.95
2023-05-15T17:10:33.949Z,1.70
2023-05-15T17:13:01.890Z,2.30
2023-05-15T17:15:30.295Z,2.22
2023-05-15T17:17:58.849Z,2.03
2023-05-15T17:20:27.395Z,2.10
2023-05-15T17:22:55.568Z,1.87
2023-05-15T17:25:25.739Z,2.40
2023-05-15T17:27:54.092Z,2.20
2023-05-15T17:30:22.632Z,2.37
2023-05-15T17:32:53.957Z,2.25
2023-05-15T17:35:22.823Z,2.25
2023-05-15T17:37:51.725Z,2.08
2023-05-15T17:40:20.398Z,1.87
2023-05-15T17:42:49.834Z,1.98
2023-05-15T17:45:21.784Z,2.08
2023-05-15T17:48:02.610Z,2.10
2023-05-15T17:50:39.062Z,2.08
2023-05-15T17:53:07.472Z,2.50
2023-05-15T17:55:36.281Z,1.98
2023-05-15T17:58:06.101Z,1.90
2023-05-15T18:00:34.476Z,1.87
2023-05-15T18:03:02.967Z,2.25
2023-05-15T18:05:31.171Z,2.22
2023-05-15T18:08:02.013Z,2.42
2023-05-15T18:10:30.663Z,2.35
2023-05-15T18:12:59.181Z,2.30
2023-05-15T18:15:31.069Z,2.70
2023-05-15T18:18:00.065Z,2.47
2023-05-15T18:20:28.161Z,2.47
2023-05-15T18:22:56.370Z,2.55
2023-05-15T18:25:25.871Z,2.40
2023-05-15T18:27:54.689Z,2.72
2023-05-15T18:30:22.746Z,2.58
2023-05-15T18:32:52.455Z,3.35
2023-05-15T18:35:20.857Z,2.53
2023-05-15T18:37:48.847Z,3.15
2023-05-15T18:40:17.636Z,3.28
2023-05-15T18:42:45.646Z,3.10
2023-05-15T18:45:14.318Z,3.45
2023-05-15T18:47:42.732Z,3.12
2023-05-15T18:50:13.760Z,3.47
2023-05-15T18:52:41.884Z,2.62
2023-05-15T18:55:11.253Z,2.75
2023-05-15T18:57:39.900Z,2.20
2023-05-15T19:00:09.135Z,2.12
2023-05-15T19:02:40.225Z,2.17
2023-05-15T19:05:10.251Z,1.98
2023-05-15T19:07:41.254Z,2.40
2023-05-15T19:10:10.849Z,2.37
2023-05-15T19:12:39.131Z,2.53
2023-05-15T19:15:08.686Z,3.00
2023-05-15T19:17:38.223Z,2.25
2023-05-15T19:20:08.592Z,2.85
2023-05-15T19:22:36.816Z,2.75
2023-05-15T19:25:07.247Z,2.92
2023-05-15T19:27:35.789Z,2.60
2023-05-15T19:30:04.180Z,2.47
2023-05-15T19:32:32.276Z,2.87
2023-05-15T19:35:00.985Z,2.87
2023-05-15T19:37:29.055Z,2.67
2023-05-15T19:39:57.264Z,2.75
2023-05-15T19:42:27.186Z,2.97
2023-05-15T19:44:55.605Z,3.08
2023-05-15T19:47:23.782Z,3.30
2023-05-15T19:49:52.241Z,3.50
2023-05-15T19:52:20.423Z,3.95
2023-05-15T19:54:48.390Z,3.22
2023-05-15T19:57:17.283Z,3.95
2023-05-15T19:59:46.688Z,3.80
2023-05-15T20:02:15.102Z,4.03
2023-05-15T20:04:45.065Z,3.87
2023-05-15T20:07:13.313Z,3.60
2023-05-15T20:09:41.544Z,3.45
2023-05-15T20:12:09.892Z,3.47
2023-05-15T20:14:38.226Z,4.12
2023-05-15T20:17:09.972Z,3.60
2023-05-15T20:19:38.381Z,3.45
2023-05-15T20:22:06.647Z,3.75
2023-05-15T20:24:35.564Z,3.28
2023-05-15T20:27:04.388Z,4.10
2023-05-15T20:29:32.621Z,3.42
2023-05-15T20:32:00.969Z,3.47
2023-05-15T20:34:33.526Z,3.72
2023-05-15T20:37:02.707Z,3.75
2023-05-15T20:39:31.142Z,4.10
2023-05-15T20:41:59.406Z,4.03
2023-05-15T20:44:27.525Z,3.95
2023-05-15T20:46:56.173Z,4.10
2023-05-15T20:49:24.292Z,3.92
2023-05-15T20:51:53.912Z,4.25
2023-05-15T20:54:22.489Z,4.65
2023-05-15T20:56:52.123Z,4.25
2023-05-15T20:59:20.509Z,4.22
2023-05-15T21:01:51.562Z,3.90
2023-05-15T21:04:20.332Z,3.97
2023-05-15T21:06:49.206Z,4.40
2023-05-15T21:09:18.771Z,4.95
2023-05-15T21:11:47.276Z,4.55
2023-05-15T21:14:15.656Z,3.85
2023-05-15T21:16:45.763Z,4.40
2023-05-15T21:19:18.952Z,4.70
2023-05-15T21:21:47.170Z,4.40
2023-05-15T21:24:15.671Z,4.28
2023-05-15T21:26:45.842Z,4.37
2023-05-15T21:29:13.995Z,4.28
2023-05-15T21:31:43.125Z,4.28
2023-05-15T21:34:11.488Z,4.60
2023-05-15T21:36:47.287Z,4.87
2023-05-15T21:39:15.614Z,4.30
2023-05-15T21:41:45.036Z,5.03
2023-05-15T21:44:14.149Z,4.03
2023-05-15T21:46:42.867Z,4.85
2023-05-15T21:49:10.979Z,4.37
2023-05-15T21:51:48.297Z,4.60
2023-05-15T21:54:16.802Z,4.10
2023-05-15T21:56:55.096Z,4.57
2023-05-15T21:59:24.391Z,4.10
2023-05-15T22:01:52.747Z,5.30
2023-05-15T22:04:21.570Z,4.72
2023-05-15T22:06:49.855Z,4.47
2023-05-15T22:09:17.962Z,4.90
2023-05-15T22:11:47.688Z,4.72
2023-05-15T22:14:15.868Z,4.85
2023-05-15T22:16:44.689Z,4.18
2023-05-15T22:19:21.471Z,4.60
2023-05-15T22:22:00.316Z,4.53
2023-05-15T22:24:28.642Z,4.70
2023-05-15T22:26:57.946Z,4.28
2023-05-15T22:29:26.618Z,4.20
2023-05-15T22:31:55.508Z,4.60
2023-05-15T22:34:25.417Z,4.68
2023-05-15T22:39:35.687Z,4.70
2023-05-15T22:42:07.259Z,4.45
2023-05-15T22:44:50.955Z,4.22
2023-05-15T22:47:49.356Z,4.60
2023-05-15T22:50:35.548Z,4.68
2023-05-15T22:53:04.155Z,4.45
2023-05-15T22:55:32.674Z,4.37
2023-05-15T22:58:33.105Z,4.82
2023-05-15T23:01:05.141Z,4.05
2023-05-15T23:03:33.274Z,4.57
2023-05-15T23:06:02.149Z,4.40
2023-05-15T23:08:47.118Z,4.60
2023-05-15T23:11:32.017Z,4.80
2023-05-15T23:14:00.561Z,4.53
2023-05-15T23:17:07.074Z,4.60
2023-05-15T23:22:43.319Z,4.97
2023-05-15T23:25:12.027Z,4.45
2023-05-15T23:28:19.417Z,4.35
2023-05-15T23:30:47.651Z,4.22
